createdAt,value
2019-05-19T00:00:08.025Z,55.25
2019-05-19T00:03:09.345Z,48.13
2019-05-19T00:06:10.830Z,53.17
2019-05-19T00:09:12.079Z,48.50
2019-05-19T00:12:13.512Z,50.00
2019-05-19T00:15:14.762Z,44.85
2019-05-19T00:18:16.204Z,48.45
2019-05-19T00:21:17.438Z,48.17
2019-05-19T00:24:18.803Z,45.95
2019-05-19T00:27:20.083Z,40.12
2019-05-19T00:30:21.525Z,49.05
2019-05-19T00:33:23.527Z,39.90
2019-05-19T00:36:25.017Z,38.40
2019-05-19T00:39:26.274Z,39.70
2019-05-19T00:42:27.725Z,39.67
2019-05-19T00:45:28.993Z,38.78
2019-05-19T00:48:31.085Z,37.42
2019-05-19T00:51:32.312Z,36.10
2019-05-19T00:54:33.760Z,42.27
2019-05-19T00:57:35.088Z,40.92
2019-05-19T01:00:36.345Z,33.10
2019-05-19T01:03:37.780Z,38.35
2019-05-19T01:06:39.018Z,48.85
2019-05-19T01:09:40.397Z,42.15
2019-05-19T01:12:41.663Z,49.40
2019-05-19T01:15:43.087Z,49.25
2019-05-19T01:18:44.306Z,58.50
2019-05-19T01:21:45.925Z,63.68
2019-05-19T01:24:47.149Z,60.90
2019-05-19T01:27:48.520Z,64.67
2019-05-19T01:30:49.750Z,58.38
2019-05-19T01:33:51.826Z,58.70
2019-05-19T01:36:53.236Z,53.68
2019-05-19T01:39:54.495Z,58.63
2019-05-19T01:42:55.744Z,54.90
2019-05-19T01:45:57.311Z,51.02
2019-05-19T01:48:58.555Z,45.60
2019-05-19T01:51:59.805Z,50.67
2019-05-19T01:55:01.164Z,49.75
2019-05-19T01:58:02.537Z,52.55
2019-05-19T02:01:03.757Z,46.48
2019-05-19T02:04:05.201Z,47.03
2019-05-19T02:07:06.438Z,47.05
2019-05-19T02:10:07.902Z,49.38
2019-05-19T02:13:09.142Z,44.10
2019-05-19T02:16:10.407Z,50.28
2019-05-19T02:19:11.658Z,40.05
2019-05-19T02:22:13.101Z,44.18
2019-05-19T02:25:14.350Z,40.52
2019-05-19T02:28:15.738Z,41.23
2019-05-19T02:31:17.003Z,37.50
2019-05-19T02:34:18.673Z,35.25
2019-05-19T02:37:19.912Z,36.83
2019-05-19T02:40:21.284Z,33.18
2019-05-19T02:43:22.529Z,36.17
2019-05-19T02:46:24.162Z,36.28
2019-05-19T02:49:26.030Z,30.57
2019-05-19T02:52:27.274Z,30.68
2019-05-19T02:55:28.527Z,35.20
2019-05-19T02:58:30.367Z,34.73
2019-05-19T03:01:33.806Z,39.38
2019-05-19T03:04:35.926Z,37.63
2019-05-19T03:07:37.184Z,39.23
2019-05-19T03:10:38.463Z,35.65
2019-05-19T03:13:39.727Z,32.45
2019-05-19T03:16:40.981Z,37.70
2019-05-19T03:19:42.210Z,36.80
2019-05-19T03:22:43.658Z,38.30
2019-05-19T03:25:44.881Z,40.88
2019-05-19T03:28:46.322Z,37.98
2019-05-19T03:31:49.463Z,40.45
2019-05-19T03:34:51.198Z,45.90
2019-05-19T03:37:52.961Z,45.50
2019-05-19T03:40:54.216Z,40.88
2019-05-19T03:43:55.473Z,44.63
2019-05-19T03:46:56.852Z,36.28
2019-05-19T03:49:58.109Z,37.17
2019-05-19T03:52:59.606Z,30.20
2019-05-19T03:56:00.834Z,35.15
2019-05-19T03:59:02.183Z,33.78
2019-05-19T04:02:03.425Z,38.05
2019-05-19T04:05:05.886Z,39.65
2019-05-19T04:08:07.591Z,34.90
2019-05-19T04:11:08.777Z,32.90
2019-05-19T04:14:10.136Z,28.98
2019-05-19T04:17:11.348Z,27.52
2019-05-19T04:20:12.711Z,31.17
2019-05-19T04:23:13.949Z,29.40
2019-05-19T04:31:02.784Z,22.32
2019-05-19T04:34:04.242Z,19.00
2019-05-19T04:37:05.645Z,21.93
2019-05-19T04:40:06.889Z,26.20
2019-05-19T04:43:08.798Z,28.87
2019-05-19T04:46:09.992Z,31.82
2019-05-19T04:49:11.879Z,21.00
2019-05-19T04:52:15.260Z,19.70
2019-05-19T04:55:16.701Z,21.27
2019-05-19T04:58:17.941Z,20.72
2019-05-19T05:01:19.465Z,19.20
2019-05-19T05:04:21.032Z,19.52
2019-05-19T05:07:22.771Z,17.77
2019-05-19T05:10:24.085Z,14.98
2019-05-19T05:13:27.902Z,15.50
2019-05-19T05:16:29.551Z,19.57
2019-05-19T05:19:30.981Z,19.27
2019-05-19T05:22:32.214Z,21.42
2019-05-19T05:25:33.716Z,19.60
2019-05-19T05:28:35.308Z,20.10
2019-05-19T05:31:56.638Z,22.20
2019-05-19T05:34:57.937Z,21.02
2019-05-19T05:37:59.418Z,21.33
2019-05-19T05:45:17.569Z,19.90
2019-05-19T05:48:18.917Z,17.48
2019-05-19T05:51:20.174Z,18.27
2019-05-19T05:54:22.653Z,15.72
2019-05-19T05:57:24.042Z,17.55
2019-05-19T06:00:25.655Z,15.18
2019-05-19T06:03:26.941Z,14.53
2019-05-19T06:06:28.489Z,13.88
2019-05-19T06:09:29.789Z,14.75
2019-05-19T06:12:31.531Z,15.32
2019-05-19T06:15:32.799Z,16.35
2019-05-19T06:18:34.705Z,15.98
2019-05-19T06:21:35.979Z,14.58
2019-05-19T06:24:37.331Z,14.23
2019-05-19T06:27:38.615Z,13.32
2019-05-19T06:30:39.907Z,16.55
2019-05-19T06:33:41.571Z,13.05
2019-05-19T06:36:43.611Z,15.38
2019-05-19T06:39:45.662Z,14.33
2019-05-19T06:42:47.134Z,13.50
2019-05-19T06:45:51.490Z,13.10
2019-05-19T06:48:52.753Z,15.13
2019-05-19T06:51:53.981Z,15.83
2019-05-19T06:54:55.264Z,15.35
2019-05-19T06:57:59.514Z,14.87
2019-05-19T07:01:00.791Z,15.05
2019-05-19T07:04:02.486Z,14.95
2019-05-19T07:07:03.834Z,13.45
2019-05-19T07:10:10.243Z,15.45
2019-05-19T07:13:11.476Z,16.20
2019-05-19T07:16:13.483Z,15.95
2019-05-19T07:19:17.186Z,12.88
2019-05-19T07:22:18.800Z,12.30
2019-05-19T07:25:21.391Z,13.00
2019-05-19T07:28:22.936Z,15.65
2019-05-19T07:31:24.195Z,13.20
2019-05-19T07:34:25.681Z,12.47
2019-05-19T07:37:43.651Z,11.28
2019-05-19T07:40:52.308Z,13.80
2019-05-19T07:43:53.841Z,13.25
2019-05-19T07:46:55.541Z,12.58
2019-05-19T07:49:57.499Z,15.18
2019-05-19T07:52:59.153Z,17.45
2019-05-19T07:56:00.839Z,10.53
2019-05-19T07:59:02.694Z,11.08
2019-05-19T08:02:04.006Z,10.95
2019-05-19T08:05:05.868Z,13.58
2019-05-19T08:08:07.185Z,10.35
2019-05-19T08:11:08.767Z,12.98
2019-05-19T08:14:10.948Z,10.58
2019-05-19T08:17:12.357Z,10.50
2019-05-19T08:20:13.864Z,13.85
2019-05-19T08:23:15.346Z,14.68
2019-05-19T08:26:16.653Z,10.40
2019-05-19T08:29:17.949Z,10.98
2019-05-19T08:32:20.220Z,11.80
2019-05-19T08:35:22.500Z,10.43
2019-05-19T08:38:23.963Z,11.57
2019-05-19T08:41:25.920Z,10.53
2019-05-19T08:44:27.264Z,10.28
2019-05-19T08:47:29.685Z,9.13
2019-05-19T08:50:31.192Z,8.00
2019-05-19T08:53:32.791Z,12.03
2019-05-19T08:56:34.090Z,12.18
2019-05-19T08:59:35.683Z,9.43
2019-05-19T09:02:37.438Z,7.47
2019-05-19T09:05:38.738Z,7.12
2019-05-19T09:08:40.188Z,7.08
2019-05-19T09:11:43.002Z,12.47
2019-05-19T09:14:45.012Z,9.28
2019-05-19T09:17:46.712Z,12.78
2019-05-19T09:20:48.250Z,8.68
2019-05-19T09:23:51.876Z,9.83
2019-05-19T09:26:53.439Z,13.08
2019-05-19T09:29:55.491Z,16.30
2019-05-19T09:36:23.889Z,19.87
2019-05-19T09:39:25.675Z,20.50
2019-05-19T09:42:27.473Z,20.68
2019-05-19T09:46:00.630Z,21.87
2019-05-19T09:49:22.796Z,20.75
2019-05-19T09:52:24.915Z,21.45
2019-05-19T09:55:26.298Z,22.87
2019-05-19T09:58:27.691Z,21.40
2019-05-19T10:01:29.529Z,21.42
2019-05-19T10:04:31.010Z,21.68
2019-05-19T10:08:03.385Z,24.67
2019-05-19T10:11:42.595Z,22.75
2019-05-19T10:14:43.887Z,19.07
2019-05-19T10:17:45.494Z,18.27
2019-05-19T10:20:50.339Z,18.85
2019-05-19T10:23:51.202Z,18.05
2019-05-19T10:26:52.545Z,15.93
2019-05-19T10:29:54.448Z,15.55
2019-05-19T10:32:58.643Z,15.10
2019-05-19T10:35:59.174Z,13.18
2019-05-19T10:39:01.266Z,13.18
2019-05-19T10:42:03.038Z,13.00
2019-05-19T10:45:06.613Z,12.13
2019-05-19T10:48:08.739Z,12.50
2019-05-19T10:51:10.102Z,10.35
2019-05-19T10:54:11.419Z,10.23
2019-05-19T10:57:12.675Z,12.50
2019-05-19T11:00:14.363Z,10.23
2019-05-19T11:03:15.626Z,10.40
2019-05-19T11:06:17.055Z,7.47
2019-05-19T11:09:18.484Z,7.58
2019-05-19T11:12:19.740Z,7.90
2019-05-19T11:15:21.688Z,11.08
2019-05-19T11:18:22.950Z,6.47
2019-05-19T11:21:24.261Z,14.05
2019-05-19T11:24:26.083Z,7.72
2019-05-19T11:27:27.787Z,6.80
2019-05-19T11:30:35.088Z,6.78
2019-05-19T11:33:36.547Z,6.33
2019-05-19T11:36:37.821Z,7.95
2019-05-19T11:39:39.480Z,7.15
2019-05-19T11:42:46.655Z,4.97
2019-05-19T11:45:53.825Z,6.30
2019-05-19T11:49:02.019Z,5.47
2019-05-19T11:52:03.556Z,4.47
2019-05-19T11:55:05.009Z,9.63
2019-05-19T11:58:06.809Z,4.75
2019-05-19T12:01:08.718Z,6.85
2019-05-19T12:04:10.578Z,7.08
2019-05-19T12:07:12.633Z,7.67
2019-05-19T12:10:14.316Z,5.03
2019-05-19T12:13:15.666Z,8.45
2019-05-19T12:16:17.115Z,7.70
2019-05-19T12:19:18.539Z,6.37
2019-05-19T12:22:19.806Z,8.03
2019-05-19T12:25:21.041Z,4.70
2019-05-19T12:28:22.808Z,4.90
2019-05-19T12:31:24.177Z,5.10
2019-05-19T12:34:25.910Z,7.28
2019-05-19T12:37:27.546Z,6.92
2019-05-19T12:40:28.903Z,3.80
2019-05-19T12:43:30.299Z,5.65
2019-05-19T12:46:31.977Z,4.05
2019-05-19T12:49:33.451Z,5.67
2019-05-19T12:52:35.569Z,5.33
2019-05-19T12:55:37.974Z,7.42
2019-05-19T12:58:39.692Z,6.95
2019-05-19T13:01:40.922Z,6.85
2019-05-19T13:04:42.315Z,8.30
2019-05-19T13:07:43.649Z,7.35
2019-05-19T13:10:45.027Z,8.13
2019-05-19T13:13:46.308Z,5.00
2019-05-19T13:16:48.086Z,5.12
2019-05-19T13:19:49.405Z,5.30
2019-05-19T13:22:50.833Z,3.85
2019-05-19T13:25:52.116Z,4.65
2019-05-19T13:28:54.110Z,6.35
2019-05-19T13:31:55.849Z,6.37
2019-05-19T13:34:57.393Z,5.12
2019-05-19T13:37:58.746Z,5.75
2019-05-19T13:41:00.224Z,4.75
2019-05-19T13:44:01.471Z,7.78
2019-05-19T13:47:02.845Z,7.97
2019-05-19T13:50:05.207Z,4.37
2019-05-19T13:53:06.620Z,3.85
2019-05-19T13:56:08.705Z,6.87
2019-05-19T13:59:09.957Z,6.15
2019-05-19T14:02:11.812Z,5.50
2019-05-19T14:05:13.254Z,4.90
2019-05-19T14:08:14.934Z,9.63
2019-05-19T14:11:16.330Z,15.00
2019-05-19T14:14:17.777Z,7.45
2019-05-19T14:17:19.258Z,4.42
2019-05-19T14:20:21.748Z,3.30
2019-05-19T14:23:22.999Z,3.30
2019-05-19T14:26:24.913Z,6.83
2019-05-19T14:29:26.156Z,4.72
2019-05-19T14:32:27.494Z,6.70
2019-05-19T14:35:31.352Z,6.72
2019-05-19T14:38:33.800Z,7.20
2019-05-19T14:41:37.461Z,4.47
2019-05-19T14:44:39.261Z,3.72
2019-05-19T14:47:41.432Z,9.53
2019-05-19T14:50:44.585Z,6.65
2019-05-19T14:53:46.863Z,5.03
2019-05-19T14:56:51.981Z,5.70
2019-05-19T14:59:54.626Z,4.28
2019-05-19T15:02:57.049Z,4.53
2019-05-19T15:05:58.397Z,4.12
2019-05-19T15:09:00.559Z,5.97
2019-05-19T15:12:01.793Z,7.87
2019-05-19T15:15:07.166Z,9.98
2019-05-19T15:18:08.693Z,6.53
2019-05-19T15:21:10.229Z,4.62
2019-05-19T15:24:13.562Z,4.35
2019-05-19T15:27:14.925Z,7.75
2019-05-19T15:30:16.354Z,6.95
2019-05-19T15:33:17.977Z,13.83
2019-05-19T15:36:19.678Z,12.23
2019-05-19T15:39:21.733Z,8.60
2019-05-19T15:42:23.991Z,5.72
2019-05-19T15:45:26.017Z,7.87
2019-05-19T15:48:28.046Z,9.38
2019-05-19T15:51:36.332Z,5.85
2019-05-19T15:54:32.718Z,5.85
2019-05-19T15:57:35.274Z,4.58
2019-05-19T16:00:36.789Z,9.33
2019-05-19T16:03:38.009Z,7.03
2019-05-19T16:06:39.503Z,7.45
2019-05-19T16:09:41.464Z,8.05
2019-05-19T16:12:45.052Z,6.47
2019-05-19T16:15:48.377Z,9.68
2019-05-19T16:18:52.994Z,9.23
2019-05-19T16:21:53.490Z,7.50
2019-05-19T16:24:55.130Z,12.00
2019-05-19T16:27:56.649Z,10.15
2019-05-19T16:30:57.929Z,8.93
2019-05-19T16:33:59.764Z,10.82
2019-05-19T16:37:01.202Z,9.80
2019-05-19T16:40:03.313Z,9.48
2019-05-19T16:43:04.973Z,8.55
2019-05-19T16:46:06.382Z,9.73
2019-05-19T16:49:10.025Z,12.47
2019-05-19T16:52:11.266Z,9.40
2019-05-19T16:55:17.619Z,10.28
2019-05-19T16:58:21.510Z,8.75
2019-05-19T17:01:22.246Z,9.30
2019-05-19T17:04:23.743Z,8.03
2019-05-19T17:07:26.690Z,13.72
2019-05-19T17:10:30.028Z,10.80
2019-05-19T17:13:31.321Z,11.55
2019-05-19T17:16:32.686Z,10.20
2019-05-19T17:19:33.928Z,10.82
2019-05-19T17:22:36.466Z,8.08
2019-05-19T17:29:00.995Z,9.45
2019-05-19T17:32:06.122Z,9.25
2019-05-19T17:35:05.085Z,10.70
2019-05-19T17:38:06.629Z,11.00
2019-05-19T17:41:07.944Z,10.20
2019-05-19T17:44:09.283Z,11.70
2019-05-19T17:47:12.673Z,11.40
2019-05-19T17:50:18.619Z,12.85
2019-05-19T17:56:37.881Z,15.50
2019-05-19T17:59:39.246Z,12.25
2019-05-19T18:02:57.966Z,12.07
2019-05-19T18:06:09.590Z,9.70
2019-05-19T18:09:15.970Z,10.38
2019-05-19T18:12:23.278Z,12.10
2019-05-19T18:15:35.984Z,12.07
2019-05-19T18:22:18.731Z,15.95
2019-05-19T18:25:59.459Z,12.98
2019-05-19T18:29:04.044Z,9.73
2019-05-19T18:32:11.864Z,13.85
2019-05-19T18:35:16.611Z,15.35
2019-05-19T18:38:26.747Z,11.68
2019-05-19T18:41:30.082Z,13.58
2019-05-19T18:44:36.807Z,14.23
2019-05-19T18:47:39.286Z,12.50
2019-05-19T18:50:47.457Z,21.30
2019-05-19T18:53:50.972Z,14.33
2019-05-19T18:56:53.990Z,15.25
2019-05-19T19:00:02.111Z,19.82
2019-05-19T19:03:08.387Z,15.45
2019-05-19T19:06:10.692Z,14.33
2019-05-19T19:09:12.225Z,18.27
2019-05-19T19:12:14.573Z,14.20
2019-05-19T19:15:15.814Z,16.10
2019-05-19T19:18:17.386Z,17.75
2019-05-19T19:21:20.637Z,17.05
2019-05-19T19:24:22.267Z,17.17
2019-05-19T19:27:23.657Z,15.55
2019-05-19T19:30:26.747Z,16.50
2019-05-19T19:33:30.332Z,13.62
2019-05-19T19:36:32.454Z,17.77
2019-05-19T19:39:33.659Z,14.18
2019-05-19T19:42:35.312Z,14.68
2019-05-19T19:45:36.613Z,15.65
2019-05-19T19:48:38.331Z,14.10
2019-05-19T19:51:40.071Z,15.32
2019-05-19T19:54:41.682Z,17.32
2019-05-19T19:57:43.338Z,14.50
2019-05-19T20:00:44.732Z,17.98
2019-05-19T20:03:46.540Z,19.32
2019-05-19T20:06:47.792Z,19.17
2019-05-19T20:09:49.350Z,15.78
2019-05-19T20:12:50.870Z,15.15
2019-05-19T20:15:52.253Z,18.85
2019-05-19T20:18:53.508Z,17.27
2019-05-19T20:21:54.938Z,20.27
2019-05-19T20:24:56.512Z,20.75
2019-05-19T20:27:58.311Z,17.42
2019-05-19T20:31:00.597Z,25.32
2019-05-19T20:34:02.111Z,19.65
2019-05-19T20:37:03.523Z,23.40
2019-05-19T20:40:08.959Z,22.55
2019-05-19T20:43:10.193Z,24.95
2019-05-19T20:46:12.064Z,23.80
2019-05-19T20:49:13.304Z,19.87
2019-05-19T20:52:14.737Z,24.15
2019-05-19T20:55:16.227Z,28.62
2019-05-19T20:58:17.685Z,20.88
2019-05-19T21:01:18.939Z,21.97
2019-05-19T21:04:20.303Z,27.93
2019-05-19T21:07:21.883Z,24.02
2019-05-19T21:10:23.245Z,25.60
2019-05-19T21:13:25.097Z,24.45
2019-05-19T21:16:26.922Z,29.92
2019-05-19T21:19:28.185Z,31.05
2019-05-19T21:22:29.676Z,27.48
2019-05-19T21:25:30.910Z,31.10
2019-05-19T21:28:32.437Z,31.00
2019-05-19T21:31:33.706Z,32.35
2019-05-19T21:34:35.142Z,32.67
2019-05-19T21:37:36.505Z,34.60
2019-05-19T21:40:37.775Z,28.98
2019-05-19T21:43:39.098Z,34.35
2019-05-19T21:46:40.540Z,31.20
2019-05-19T21:49:41.786Z,29.00
2019-05-19T21:52:43.961Z,28.87
2019-05-19T21:55:46.298Z,32.48
2019-05-19T21:58:47.914Z,35.65
2019-05-19T22:01:49.631Z,34.33
2019-05-19T22:04:51.101Z,28.15
2019-05-19T22:08:00.048Z,33.45
2019-05-19T22:11:04.450Z,29.85
2019-05-19T22:14:04.460Z,29.80
2019-05-19T22:17:05.816Z,30.12
2019-05-19T22:20:07.376Z,29.35
2019-05-19T22:23:08.816Z,33.10
2019-05-19T22:26:10.051Z,28.42
2019-05-19T22:29:11.309Z,26.68
2019-05-19T22:32:12.489Z,36.88
2019-05-19T22:35:13.938Z,28.95
2019-05-19T22:38:15.278Z,30.35
2019-05-19T22:41:16.673Z,27.48
2019-05-19T22:44:20.254Z,26.93
2019-05-19T22:47:21.174Z,33.15
2019-05-19T22:50:22.602Z,28.32
2019-05-19T22:53:24.592Z,27.70
2019-05-19T22:56:26.025Z,29.02
2019-05-19T22:59:27.325Z,27.85
2019-05-19T23:02:28.808Z,27.32
2019-05-19T23:05:30.042Z,30.72
2019-05-19T23:08:31.500Z,37.48
2019-05-19T23:11:32.841Z,32.00
2019-05-19T23:14:34.269Z,32.60
2019-05-19T23:17:35.794Z,29.77
2019-05-19T23:20:37.304Z,29.45
2019-05-19T23:23:38.553Z,32.93
2019-05-19T23:26:39.793Z,31.90
2019-05-19T23:29:41.162Z,41.18
2019-05-19T23:32:42.413Z,29.60
2019-05-19T23:35:43.792Z,31.77
2019-05-19T23:38:45.045Z,31.48
2019-05-19T23:41:46.297Z,33.28
2019-05-19T23:44:47.670Z,32.90
2019-05-19T23:47:48.902Z,40.60
2019-05-19T23:50:50.335Z,40.33
2019-05-19T23:53:52.177Z,44.27
2019-05-19T23:56:53.619Z,40.90
2019-05-19T23:59:55.318Z,45.10
